Jonathan, Mississippi
Current Conditions -  °F | °C
As of 1:56 PM on Monday 26 Jan 2015 (Local Time) from KMOB Reporting Station
Few Clouds Few Clouds  
Wind Chill: 57°   Ceiling: Unl
Heat Index: 57°   Visibility: 10mi
Dew Point: 35°   Wind: 16mph
Humidity: 44%   Direction: 330°NNW
Pressure: 30.01"   Gusts: 23mph
Location:  31.1153°N, 88.5168°W
Report Text: KMOB 261956Z 33014G20KT 10SM FEW040 14/02 A3001 RMK AO2 SLP161 T01390017
Loading
Personal Weather Stations






























Interactive Weather Map New forecast layout! Learn more

10-Day Weather Forecast

Advertisements
Track Severe Weather on mobile